createdAt,value
2022-12-23T00:03:28.510Z,21.50
2022-12-23T00:07:31.161Z,21.40
2022-12-23T00:11:33.070Z,22.80
2022-12-23T00:15:34.933Z,21.20
2022-12-23T00:19:36.818Z,22.60
2022-12-23T00:23:42.419Z,25.20
2022-12-23T00:28:00.888Z,24.70
2022-12-23T00:32:02.924Z,25.00
2022-12-23T00:36:12.717Z,25.80
2022-12-23T00:40:33.802Z,23.70
2022-12-23T00:44:35.676Z,24.50
2022-12-23T00:48:56.264Z,25.90
2022-12-23T00:52:58.246Z,23.80
2022-12-23T00:57:01.095Z,24.60
2022-12-23T01:01:21.805Z,23.20
2022-12-23T01:05:36.039Z,23.40
2022-12-23T01:09:37.937Z,22.60
2022-12-23T01:13:40.059Z,20.50
2022-12-23T01:17:41.926Z,21.40
2022-12-23T01:21:43.897Z,22.10
2022-12-23T01:25:47.570Z,23.10
2022-12-23T01:29:49.478Z,21.50
2022-12-23T01:33:52.386Z,20.00
2022-12-23T01:37:54.212Z,20.70
2022-12-23T01:42:14.819Z,19.30
2022-12-23T01:46:17.469Z,20.80
2022-12-23T01:50:25.106Z,22.90
2022-12-23T01:54:27.109Z,20.10
2022-12-23T01:58:36.347Z,18.10
2022-12-23T02:03:00.254Z,18.30
2022-12-23T02:07:21.626Z,18.10
2022-12-23T02:11:42.826Z,17.70
2022-12-23T02:16:13.428Z,18.20
2022-12-23T02:20:21.469Z,17.80
2022-12-23T02:24:42.051Z,19.10
2022-12-23T02:29:03.372Z,18.00
2022-12-23T02:33:12.745Z,18.00
2022-12-23T02:37:19.729Z,18.50
2022-12-23T02:41:42.610Z,18.60
2022-12-23T02:45:52.673Z,18.30
2022-12-23T02:49:58.591Z,19.80
2022-12-23T02:54:03.961Z,21.30
2022-12-23T02:58:10.730Z,18.80
2022-12-23T03:02:13.198Z,18.90
2022-12-23T03:06:21.877Z,19.60
2022-12-23T03:10:51.494Z,18.80
2022-12-23T03:19:28.364Z,17.60
2022-12-23T03:23:37.457Z,20.50
2022-12-23T03:27:45.179Z,20.10
2022-12-23T03:31:47.695Z,18.40
2022-12-23T03:35:56.975Z,18.60
2022-12-23T03:40:12.272Z,17.70
2022-12-23T03:44:32.497Z,16.80
2022-12-23T03:48:46.232Z,18.70
2022-12-23T03:53:07.567Z,18.10
2022-12-23T03:57:11.232Z,16.70
2022-12-23T04:01:18.025Z,16.50
2022-12-23T04:05:31.932Z,18.20
2022-12-23T04:09:35.823Z,16.80
2022-12-23T04:13:37.829Z,15.80
2022-12-23T04:17:39.851Z,16.00
2022-12-23T04:21:41.771Z,17.50
2022-12-23T04:25:43.673Z,18.30
2022-12-23T04:29:46.380Z,16.60
2022-12-23T04:33:48.626Z,16.30
2022-12-23T04:37:50.489Z,16.90
2022-12-23T04:41:52.415Z,17.50
2022-12-23T04:45:54.264Z,18.00
2022-12-23T04:49:56.221Z,19.10
2022-12-23T04:53:58.063Z,19.90
2022-12-23T04:58:00.334Z,20.40
2022-12-23T05:02:02.377Z,19.00
2022-12-23T05:06:05.165Z,20.10
2022-12-23T05:10:08.159Z,19.70
2022-12-23T05:14:11.328Z,20.50
2022-12-23T05:18:13.181Z,19.70
2022-12-23T05:22:15.108Z,18.70
2022-12-23T05:26:16.977Z,19.80
2022-12-23T05:30:19.004Z,20.10
2022-12-23T05:34:21.241Z,20.70
2022-12-23T05:38:23.541Z,19.90
2022-12-23T05:42:25.476Z,61.40
2022-12-23T05:46:27.576Z,66.70
2022-12-23T05:50:29.778Z,42.90
2022-12-23T05:54:31.679Z,91.80
2022-12-23T05:58:33.609Z,46.70
2022-12-23T06:02:35.555Z,27.00
2022-12-23T06:06:38.082Z,38.00
2022-12-23T06:10:39.975Z,23.30
2022-12-23T06:14:41.879Z,31.30
2022-12-23T06:18:43.806Z,21.20
2022-12-23T06:22:45.640Z,18.10
2022-12-23T06:26:50.822Z,28.10
2022-12-23T06:30:56.625Z,41.70
2022-12-23T06:34:58.530Z,47.30
2022-12-23T06:39:00.357Z,23.70
2022-12-23T06:43:02.245Z,20.70
2022-12-23T06:47:04.156Z,20.60
2022-12-23T06:51:06.027Z,21.20
2022-12-23T06:55:08.874Z,20.50
2022-12-23T06:59:10.826Z,22.40
2022-12-23T07:03:12.797Z,21.10
2022-12-23T07:07:14.963Z,20.50
2022-12-23T07:11:16.865Z,80.50
2022-12-23T07:15:18.763Z,142.10
2022-12-23T07:19:20.617Z,36.30
2022-12-23T07:23:22.624Z,21.80
2022-12-23T07:27:24.623Z,19.70
2022-12-23T07:31:26.710Z,19.50
2022-12-23T07:35:28.722Z,21.70
2022-12-23T07:39:30.625Z,22.40
2022-12-23T07:43:32.482Z,20.60
2022-12-23T07:47:34.371Z,19.10
2022-12-23T07:51:36.244Z,23.30
2022-12-23T07:55:39.378Z,23.10
2022-12-23T07:59:41.262Z,21.90
2022-12-23T08:03:43.397Z,20.50
2022-12-23T08:07:45.465Z,21.50
2022-12-23T08:11:47.478Z,23.70
2022-12-23T08:15:54.198Z,35.30
2022-12-23T08:19:56.600Z,26.90
2022-12-23T08:23:58.551Z,20.50
2022-12-23T08:28:00.406Z,17.80
2022-12-23T08:32:02.647Z,18.40
2022-12-23T08:36:06.357Z,16.90
2022-12-23T08:40:11.130Z,18.00
2022-12-23T08:44:14.625Z,17.40
2022-12-23T08:48:16.547Z,17.10
2022-12-23T08:52:18.471Z,17.40
2022-12-23T08:56:22.117Z,17.00
2022-12-23T09:00:24.093Z,19.60
2022-12-23T09:04:26.016Z,18.00
2022-12-23T09:08:27.930Z,17.80
2022-12-23T09:12:29.964Z,17.50
2022-12-23T09:16:32.410Z,16.90
2022-12-23T09:20:34.410Z,20.00
2022-12-23T09:24:37.719Z,18.10
2022-12-23T09:28:39.760Z,16.50
2022-12-23T09:32:41.595Z,16.20
2022-12-23T09:36:43.555Z,17.20
2022-12-23T09:40:45.541Z,17.20
2022-12-23T09:45:09.093Z,17.20
2022-12-23T09:49:15.398Z,18.00
2022-12-23T09:53:24.740Z,15.60
2022-12-23T09:57:40.065Z,17.30
2022-12-23T10:01:57.412Z,16.40
2022-12-23T10:06:10.607Z,15.60
2022-12-23T10:10:39.484Z,15.90
2022-12-23T10:14:43.090Z,16.80
2022-12-23T10:18:47.899Z,15.20
2022-12-23T10:22:51.053Z,13.60
2022-12-23T10:27:18.909Z,15.60
2022-12-23T10:31:40.426Z,15.00
2022-12-23T10:36:03.106Z,14.50
2022-12-23T10:40:23.551Z,15.80
2022-12-23T10:44:31.374Z,15.50
2022-12-23T10:48:59.339Z,15.00
2022-12-23T10:53:05.525Z,14.40
2022-12-23T10:57:08.496Z,14.70
2022-12-23T11:01:18.878Z,13.20
2022-12-23T11:05:30.159Z,14.50
2022-12-23T11:09:52.211Z,15.90
2022-12-23T11:13:54.645Z,14.60
2022-12-23T11:18:21.531Z,14.00
2022-12-23T11:22:25.154Z,14.60
2022-12-23T11:26:27.083Z,14.40
2022-12-23T11:30:37.361Z,15.60
2022-12-23T11:34:44.070Z,16.00
2022-12-23T11:39:13.881Z,14.20
2022-12-23T11:43:17.411Z,16.20
2022-12-23T11:47:22.121Z,16.50
2022-12-23T11:51:26.339Z,16.20
2022-12-23T11:55:34.001Z,17.20
2022-12-23T11:59:48.430Z,16.80
2022-12-23T12:03:55.054Z,16.40
2022-12-23T12:08:06.595Z,15.50
2022-12-23T12:12:18.907Z,16.80
2022-12-23T12:16:34.901Z,17.90
2022-12-23T12:20:42.017Z,17.40
2022-12-23T12:24:52.304Z,16.50
2022-12-23T12:29:10.103Z,16.20
2022-12-23T12:33:25.242Z,15.60
2022-12-23T12:37:33.066Z,17.40
2022-12-23T12:41:39.257Z,17.20
2022-12-23T12:45:52.016Z,16.00
2022-12-23T12:50:01.845Z,15.90
2022-12-23T12:54:22.209Z,17.10
2022-12-23T12:58:24.578Z,14.90
2022-12-23T13:02:26.458Z,16.00
2022-12-23T13:06:35.744Z,15.20
2022-12-23T13:10:56.253Z,15.30
2022-12-23T13:15:20.842Z,16.60
2022-12-23T13:19:54.710Z,15.70
2022-12-23T13:24:34.382Z,16.60
2022-12-23T13:29:09.623Z,17.80
2022-12-23T13:33:14.766Z,14.60
2022-12-23T13:37:39.452Z,15.80
2022-12-23T13:41:50.110Z,16.00
2022-12-23T13:45:54.655Z,15.40
2022-12-23T13:50:12.994Z,16.50
2022-12-23T13:54:39.942Z,15.70
2022-12-23T13:58:46.642Z,16.20
2022-12-23T14:03:02.391Z,14.70
2022-12-23T14:07:19.485Z,16.20
2022-12-23T14:11:30.417Z,16.00
2022-12-23T14:15:47.342Z,15.60
2022-12-23T14:20:20.865Z,15.50
2022-12-23T14:24:44.934Z,15.60
2022-12-23T14:29:14.792Z,14.40
2022-12-23T14:33:32.326Z,15.30
2022-12-23T14:37:37.475Z,15.10
2022-12-23T14:41:50.248Z,15.40
2022-12-23T14:45:56.431Z,15.70
2022-12-23T14:50:35.618Z,15.00
2022-12-23T14:54:38.749Z,14.10
2022-12-23T14:58:52.807Z,17.40
2022-12-23T15:02:59.032Z,15.70
2022-12-23T15:07:20.841Z,14.10
2022-12-23T15:11:27.873Z,14.50
2022-12-23T15:15:30.675Z,15.90
2022-12-23T15:19:32.673Z,12.70
2022-12-23T15:23:34.577Z,14.60
2022-12-23T15:27:36.917Z,13.50
2022-12-23T15:31:41.807Z,14.40
2022-12-23T15:35:43.882Z,14.50
2022-12-23T15:39:48.842Z,15.40
2022-12-23T15:43:51.231Z,16.50
2022-12-23T15:47:53.211Z,15.70
2022-12-23T15:52:12.407Z,17.10
2022-12-23T15:56:22.837Z,18.10
2022-12-23T16:00:39.486Z,17.60
2022-12-23T16:04:41.701Z,18.20
2022-12-23T16:08:45.208Z,17.60
2022-12-23T16:12:51.531Z,16.90
2022-12-23T16:16:58.897Z,17.30
2022-12-23T16:21:03.283Z,18.40
2022-12-23T16:25:14.369Z,17.10
2022-12-23T16:29:16.507Z,18.90
2022-12-23T16:33:31.197Z,18.00
2022-12-23T16:37:33.071Z,20.60
2022-12-23T16:41:35.632Z,19.90
2022-12-23T16:45:38.101Z,23.40
2022-12-23T16:49:40.028Z,20.30
2022-12-23T16:53:41.940Z,21.80
2022-12-23T16:57:44.671Z,20.10
2022-12-23T17:01:48.717Z,23.80
2022-12-23T17:05:50.686Z,22.50
2022-12-23T17:09:52.670Z,23.20
2022-12-23T17:14:01.439Z,26.30
2022-12-23T17:18:12.333Z,21.20
2022-12-23T17:22:14.451Z,23.90
2022-12-23T17:26:16.340Z,22.20
2022-12-23T17:30:20.996Z,24.50
2022-12-23T17:34:24.060Z,25.00
2022-12-23T17:38:29.039Z,24.50
2022-12-23T17:42:32.323Z,24.50
2022-12-23T17:46:34.784Z,28.70
2022-12-23T17:50:38.278Z,25.20
2022-12-23T17:54:40.258Z,24.20
2022-12-23T17:58:43.566Z,27.90
2022-12-23T18:02:46.955Z,25.50
2022-12-23T18:06:49.053Z,27.80
2022-12-23T18:10:51.040Z,26.10
2022-12-23T18:14:53.112Z,27.00
2022-12-23T18:18:55.219Z,28.60
2022-12-23T18:22:58.852Z,29.20
2022-12-23T18:27:01.374Z,28.30
2022-12-23T18:31:03.406Z,30.00
2022-12-23T18:35:33.749Z,27.00
2022-12-23T18:39:35.710Z,24.60
2022-12-23T18:43:38.167Z,26.30
2022-12-23T18:47:40.064Z,25.30
2022-12-23T18:51:43.304Z,27.40
2022-12-23T18:55:45.577Z,27.20
2022-12-23T18:59:47.461Z,27.90
2022-12-23T19:03:49.458Z,26.70
2022-12-23T19:07:52.706Z,25.40
2022-12-23T19:11:54.726Z,26.70
2022-12-23T19:15:57.520Z,29.10
2022-12-23T19:19:59.876Z,28.10
2022-12-23T19:24:02.534Z,27.40
2022-12-23T19:28:04.435Z,26.90
2022-12-23T19:32:06.469Z,25.70
2022-12-23T19:36:15.910Z,22.40
2022-12-23T19:40:18.474Z,23.80
2022-12-23T19:44:20.424Z,24.50
2022-12-23T19:48:22.301Z,26.10
2022-12-23T19:52:24.186Z,27.00
2022-12-23T19:56:26.962Z,26.70
2022-12-23T20:00:28.866Z,27.30
2022-12-23T20:04:31.904Z,22.40
2022-12-23T20:08:34.344Z,23.90
2022-12-23T20:12:38.871Z,20.80
2022-12-23T20:16:41.400Z,22.10
2022-12-23T20:20:43.838Z,24.00
2022-12-23T20:24:45.751Z,24.40
2022-12-23T20:28:48.097Z,22.40
2022-12-23T20:32:49.966Z,24.20
2022-12-23T20:36:51.851Z,24.40
2022-12-23T20:40:53.783Z,24.10
2022-12-23T20:44:55.781Z,26.50
2022-12-23T20:48:57.724Z,25.00
2022-12-23T20:52:59.633Z,24.10
2022-12-23T20:57:02.287Z,24.40
2022-12-23T21:01:12.062Z,30.00
2022-12-23T21:05:16.246Z,26.50
2022-12-23T21:09:18.424Z,22.40
2022-12-23T21:13:20.501Z,25.00
2022-12-23T21:17:23.343Z,24.00
2022-12-23T21:21:27.624Z,26.90
2022-12-23T21:25:29.775Z,26.40
2022-12-23T21:29:31.717Z,27.90
2022-12-23T21:33:42.246Z,25.80
2022-12-23T21:37:44.204Z,26.90
2022-12-23T21:41:48.729Z,30.50
2022-12-23T21:46:02.778Z,32.50
2022-12-23T21:50:05.362Z,28.10
2022-12-23T21:54:09.045Z,28.30
2022-12-23T21:58:11.112Z,32.40
2022-12-23T22:02:16.224Z,40.90
2022-12-23T22:06:33.282Z,101.40
2022-12-23T22:10:37.967Z,87.50
2022-12-23T22:14:39.911Z,34.50
2022-12-23T22:18:42.584Z,29.40
2022-12-23T22:22:44.481Z,52.70
2022-12-23T22:26:46.513Z,98.50
2022-12-23T22:30:49.121Z,51.70
2022-12-23T22:34:51.084Z,32.20
2022-12-23T22:38:55.471Z,53.30
2022-12-23T22:42:57.448Z,34.70
2022-12-23T22:46:59.339Z,36.30
2022-12-23T22:51:02.444Z,42.70
2022-12-23T22:55:05.578Z,57.50
2022-12-23T22:59:12.058Z,178.80
2022-12-23T23:03:14.003Z,122.60
2022-12-23T23:07:15.884Z,97.20
2022-12-23T23:11:17.830Z,132.90
2022-12-23T23:15:19.767Z,100.30
2022-12-23T23:19:21.959Z,69.30
2022-12-23T23:23:23.895Z,50.00
2022-12-23T23:27:25.774Z,39.20
2022-12-23T23:31:44.244Z,36.40
2022-12-23T23:39:54.155Z,33.00
2022-12-23T23:43:56.080Z,29.50
2022-12-23T23:47:58.069Z,27.90
2022-12-23T23:51:59.957Z,24.10
2022-12-23T23:56:06.703Z,23.40
